Time;durP1;ratioP1;P1;durP2;ratioP2;P2;SDS_P1;SDS_P2;PMS_P1;PMS_P2;Temp;Humidity;BMP_temperature;BMP_pressure;BME280_temperature;BME280_humidity;BME280_pressure;Samples;Min_cycle;Max_cycle;Signal;HPM_P1;HPM_P2
2022/01/07 00:02:21;;;;;;;9.10;3.10;;;;;;;11.27;44.93;101355.03;4955657;28;20031;-66
2022/01/07 00:04:46;;;;;;;9.60;2.92;;;;;;;11.27;45.26;101345.16;4956288;29;20551;-65
2022/01/07 00:07:11;;;;;;;10.65;3.35;;;;;;;11.28;45.53;101335.28;4956188;28;20038;-66
2022/01/07 00:09:37;;;;;;;12.00;3.40;;;;;;;11.30;44.99;101327.97;4956459;29;20037;-66
2022/01/07 00:12:06;;;;;;;5.55;2.75;;;;;;;11.34;44.99;101326.75;4956565;29;20114;-66
2022/01/07 00:14:31;;;;;;;7.53;3.10;;;;;;;11.36;45.15;101335.53;4956329;29;20078;-67
2022/01/07 00:16:57;;;;;;;14.13;2.72;;;;;;;11.34;44.97;101318.69;4956649;29;20042;-66
2022/01/07 00:19:22;;;;;;;12.82;3.10;;;;;;;11.33;45.39;101317.88;4923131;29;20438;-65
2022/01/07 00:21:47;;;;;;;7.47;3.30;;;;;;;11.31;45.33;101318.94;4956210;29;20074;-66
2022/01/07 00:24:13;;;;;;;8.38;3.38;;;;;;;11.30;45.35;101319.94;4939210;29;20038;-65
2022/01/07 00:26:38;;;;;;;11.07;2.92;;;;;;;11.32;45.38;101312.59;4956560;29;20118;-66
2022/01/07 00:29:04;;;;;;;11.45;2.90;;;;;;;11.33;45.20;101317.88;4939404;29;20031;-66
2022/01/07 00:31:29;;;;;;;9.57;3.65;;;;;;;11.33;45.18;101322.38;4956338;29;20074;-66
2022/01/07 00:33:54;;;;;;;7.68;2.92;;;;;;;11.36;45.21;101327.50;4939363;29;20373;-65
2022/01/07 00:36:20;;;;;;;9.63;3.55;;;;;;;11.36;44.86;101311.41;4956366;29;20031;-66
2022/01/07 00:38:45;;;;;;;5.80;2.35;;;;;;;11.39;44.77;101311.16;4923428;29;20031;-66
2022/01/07 00:41:10;;;;;;;7.13;2.90;;;;;;;11.37;45.27;101302.34;4956328;29;20365;-66
2022/01/07 00:43:36;;;;;;;10.02;3.28;;;;;;;11.38;44.78;101301.41;4956295;29;20031;-66
2022/01/07 00:46:01;;;;;;;10.88;3.22;;;;;;;11.37;44.78;101307.72;4956327;28;20039;-66
2022/01/07 00:48:27;;;;;;;7.35;3.22;;;;;;;11.37;45.03;101297.84;4956050;29;20111;-66
2022/01/07 00:50:52;;;;;;;5.90;3.20;;;;;;;11.34;44.89;101291.88;4938790;29;20039;-66
2022/01/07 00:53:18;;;;;;;6.97;2.72;;;;;;;11.33;44.33;101280.31;4956058;29;20035;-66
2022/01/07 00:55:43;;;;;;;7.63;2.67;;;;;;;11.34;44.78;101282.00;4955974;29;20396;-66
2022/01/07 00:58:08;;;;;;;6.50;2.58;;;;;;;11.36;45.00;101280.03;4956140;29;20055;-65
2022/01/07 01:00:34;;;;;;;8.27;3.05;;;;;;;11.37;44.76;101280.91;4955908;29;20040;-66
2022/01/07 01:02:59;;;;;;;6.90;2.58;;;;;;;11.36;44.80;101265.81;4955926;29;20043;-66
2022/01/07 01:05:25;;;;;;;5.28;2.88;;;;;;;11.36;44.78;101287.25;4956116;29;20038;-66
2022/01/07 01:07:51;;;;;;;6.68;2.35;;;;;;;11.35;44.70;101282.88;4955737;29;20126;-66
2022/01/07 01:10:19;;;;;;;6.30;2.22;;;;;;;11.32;44.49;101272.38;4955751;29;20110;-66
2022/01/07 01:12:46;;;;;;;5.78;3.10;;;;;;;11.26;44.59;101291.63;4955579;29;20027;-65
2022/01/07 01:15:15;;;;;;;4.22;2.17;;;;;;;11.21;45.13;101269.69;4938283;29;20027;-66
2022/01/07 01:17:41;;;;;;;5.38;2.92;;;;;;;11.19;45.29;101266.31;4938457;29;20039;-66
2022/01/07 01:20:08;;;;;;;7.60;2.80;;;;;;;11.18;44.93;101264.59;4955598;29;20023;-66
2022/01/07 01:22:35;;;;;;;7.43;2.50;;;;;;;11.14;45.25;101257.78;4955457;29;20076;-65
2022/01/07 01:25:00;;;;;;;5.28;2.70;;;;;;;11.11;45.37;101269.56;4938694;29;20038;-66
2022/01/07 01:27:25;;;;;;;5.50;2.50;;;;;;;11.09;45.14;101256.31;4938151;29;20443;-65
2022/01/07 01:29:51;;;;;;;7.25;2.17;;;;;;;11.07;45.42;101252.03;4955438;29;20464;-66
2022/01/07 01:32:16;;;;;;;4.78;2.60;;;;;;;11.03;45.40;101248.75;4955596;29;20032;-65
2022/01/07 01:34:42;;;;;;;8.13;2.25;;;;;;;11.02;45.59;101249.75;4938315;29;20089;-66
2022/01/07 01:37:08;;;;;;;3.50;1.85;;;;;;;11.01;45.69;101253.38;4955226;29;20108;-65
2022/01/07 01:39:33;;;;;;;7.53;2.10;;;;;;;11.01;45.33;101242.66;4955182;29;20035;-65
2022/01/07 01:41:59;;;;;;;3.83;2.17;;;;;;;10.98;45.65;101232.19;4955256;29;20718;-65
2022/01/07 01:44:24;;;;;;;10.32;2.03;;;;;;;10.95;45.58;101227.06;4955098;29;20397;-66
2022/01/07 01:46:50;;;;;;;6.43;2.47;;;;;;;10.96;45.22;101222.56;4955181;28;20114;-66
2022/01/07 01:49:15;;;;;;;9.60;2.15;;;;;;;10.88;45.68;101209.78;4955051;29;20027;-66
2022/01/07 01:51:40;;;;;;;9.18;2.47;;;;;;;10.83;45.56;101206.59;4954940;29;20086;-65
2022/01/07 01:54:06;;;;;;;4.35;1.70;;;;;;;10.80;45.74;101195.28;4955002;29;20392;-66
2022/01/07 01:56:32;;;;;;;9.98;2.00;;;;;;;10.75;45.65;101195.63;4954937;29;20030;-65
2022/01/07 01:58:58;;;;;;;4.85;1.65;;;;;;;10.70;45.29;101181.75;4937805;29;20115;-65
2022/01/07 02:01:23;;;;;;;6.07;2.42;;;;;;;10.67;45.69;101179.31;4937827;29;20130;-66
2022/01/07 02:03:48;;;;;;;5.93;1.80;;;;;;;10.67;46.22;101167.72;4954888;29;20035;-65
2022/01/07 02:06:15;;;;;;;6.00;2.00;;;;;;;10.67;45.73;101176.63;4954806;29;20039;-66
2022/01/07 02:08:41;;;;;;;6.75;2.22;;;;;;;10.67;45.54;101157.88;4954928;29;20030;-65
2022/01/07 02:11:06;;;;;;;6.57;2.15;;;;;;;10.71;45.74;101159.34;4954689;29;20020;-66
2022/01/07 02:13:32;;;;;;;5.00;2.05;;;;;;;10.74;45.63;101144.84;4954819;29;20090;-65
2022/01/07 02:15:57;;;;;;;5.13;1.88;;;;;;;10.76;45.67;101149.13;4954626;29;20030;-66
2022/01/07 02:18:23;;;;;;;7.30;1.75;;;;;;;10.82;45.92;101129.88;4954636;29;20057;-66
2022/01/07 02:20:48;;;;;;;6.15;1.90;;;;;;;10.85;45.57;101134.97;4937405;29;20090;-67
2022/01/07 02:23:15;;;;;;;5.95;2.45;;;;;;;10.86;45.44;101125.94;4937702;29;20031;-66
2022/01/07 02:25:41;;;;;;;3.90;2.22;;;;;;;10.88;45.41;101124.03;4953903;28;20494;-66
2022/01/07 02:28:07;;;;;;;6.03;2.10;;;;;;;10.89;46.07;101108.75;4954445;29;20023;-66
2022/01/07 02:30:33;;;;;;;6.18;2.10;;;;;;;10.93;45.20;101116.44;4937344;29;20440;-66
2022/01/07 02:32:58;;;;;;;5.60;1.95;;;;;;;10.98;45.41;101114.25;4954400;29;20116;-66
2022/01/07 02:35:27;;;;;;;5.20;1.63;;;;;;;11.04;45.11;101099.50;4954465;29;20476;-65
2022/01/07 02:37:53;;;;;;;3.33;1.52;;;;;;;11.07;45.54;101097.41;4954371;29;20078;-66
2022/01/07 02:40:18;;;;;;;2.05;1.38;;;;;;;11.11;45.01;101098.84;4954375;29;20027;-65
2022/01/07 02:42:44;;;;;;;6.03;1.77;;;;;;;11.14;44.94;101092.38;4954290;29;20438;-66
2022/01/07 02:45:11;;;;;;;1.45;1.05;;;;;;;11.18;44.96;101090.31;4954200;28;20263;-66
2022/01/07 02:47:53;;;;;;;3.13;1.35;;;;;;;11.22;45.37;101089.09;4954320;29;20431;-66
2022/01/07 02:50:28;;;;;;;2.45;1.30;;;;;;;11.23;44.81;101080.06;4953925;28;20050;-65
2022/01/07 02:52:54;;;;;;;3.35;1.63;;;;;;;11.24;44.78;101090.66;4954169;29;20031;-66
2022/01/07 02:55:21;;;;;;;9.85;1.85;;;;;;;11.28;44.84;101092.09;4937251;29;20031;-66
2022/01/07 02:57:48;;;;;;;4.00;1.17;;;;;;;11.33;44.96;101110.50;4954273;29;20042;-66
2022/01/07 03:00:16;;;;;;;3.80;1.55;;;;;;;11.34;45.14;101088.06;4921270;29;20113;-66
2022/01/07 03:02:42;;;;;;;9.68;1.77;;;;;;;11.38;44.39;101097.56;4954399;29;20499;-66
2022/01/07 03:05:08;;;;;;;2.55;1.42;;;;;;;11.40;44.74;101087.53;4954161;29;20043;-65
2022/01/07 03:07:33;;;;;;;3.53;1.77;;;;;;;11.44;44.74;101089.00;4954508;29;20023;-65
2022/01/07 03:09:59;;;;;;;3.38;1.00;;;;;;;11.44;44.60;101078.28;4937069;29;20443;-65
2022/01/07 03:12:24;;;;;;;4.40;1.33;;;;;;;11.46;44.59;101087.91;4920973;29;20027;-66
2022/01/07 03:14:50;;;;;;;3.92;1.10;;;;;;;11.46;44.69;101079.84;4954019;29;20417;-66
2022/01/07 03:17:15;;;;;;;4.55;1.40;;;;;;;11.46;45.09;101076.31;4954139;29;20030;-66
2022/01/07 03:19:40;;;;;;;6.00;1.73;;;;;;;11.48;44.44;101082.38;4953925;29;20387;-65
2022/01/07 03:22:06;;;;;;;3.63;1.25;;;;;;;11.45;44.55;101071.91;4954128;29;20028;-65
2022/01/07 03:24:31;;;;;;;3.92;1.08;;;;;;;11.45;44.68;101080.81;4953898;29;20023;-66
2022/01/07 03:26:56;;;;;;;7.53;1.55;;;;;;;11.46;44.44;101076.31;4953979;29;20388;-66
2022/01/07 03:29:22;;;;;;;5.18;1.15;;;;;;;11.48;45.10;101079.72;4936699;29;20387;-66
2022/01/07 03:31:47;;;;;;;7.53;1.83;;;;;;;11.50;44.88;101067.03;4953922;29;20027;-66
2022/01/07 03:34:12;;;;;;;6.32;1.35;;;;;;;11.49;44.88;101065.31;4953848;29;20030;-67
2022/01/07 03:36:38;;;;;;;3.45;1.45;;;;;;;11.49;44.46;101054.59;4954187;28;20026;-66
2022/01/07 03:39:03;;;;;;;3.97;1.40;;;;;;;11.47;44.83;101053.88;4957527;29;20500;-65
2022/01/07 03:41:29;;;;;;;8.50;1.70;;;;;;;11.46;44.77;101057.53;4940283;29;20027;-64
2022/01/07 03:43:55;;;;;;;5.88;1.45;;;;;;;11.45;44.94;101055.81;4956858;28;20114;-66
2022/01/07 03:46:20;;;;;;;1.85;1.10;;;;;;;11.44;44.35;101062.19;4957438;28;20447;-65
2022/01/07 03:48:46;;;;;;;6.05;1.40;;;;;;;11.43;44.34;101049.75;4957195;29;20034;-65
2022/01/07 03:51:11;;;;;;;8.00;1.58;;;;;;;11.40;44.73;101036.59;4957258;29;20058;-65
2022/01/07 03:53:36;;;;;;;5.15;1.50;;;;;;;11.36;44.70;101037.84;4940400;29;20031;-65
2022/01/07 03:56:02;;;;;;;4.70;1.67;;;;;;;11.33;44.62;101038.97;4957124;29;20123;-65
2022/01/07 03:58:27;;;;;;;4.28;0.88;;;;;;;11.30;44.87;101043.72;4957391;29;20391;-66
2022/01/07 04:00:53;;;;;;;6.90;1.08;;;;;;;11.24;45.65;101030.81;4957024;29;20023;-66
2022/01/07 04:03:18;;;;;;;4.32;1.77;;;;;;;11.22;45.07;101035.47;4957102;29;20032;-66
2022/01/07 04:05:44;;;;;;;6.80;2.08;;;;;;;11.17;45.12;101026.97;4956897;29;20031;-65
2022/01/07 04:08:10;;;;;;;2.95;1.45;;;;;;;11.16;45.19;101035.97;4957249;29;20042;-65
2022/01/07 04:10:35;;;;;;;4.13;1.60;;;;;;;11.14;45.35;101030.72;4956805;29;20027;-65
2022/01/07 04:13:01;;;;;;;4.97;1.30;;;;;;;11.12;45.43;101040.72;4957179;29;20372;-66
2022/01/07 04:15:27;;;;;;;1.17;1.00;;;;;;;11.11;45.97;101029.16;4956801;29;20100;-66
2022/01/07 04:17:53;;;;;;;4.03;1.50;;;;;;;11.11;45.21;101023.78;4957028;29;20444;-66
2022/01/07 04:20:22;;;;;;;2.47;1.27;;;;;;;11.09;45.56;101031.13;4956945;29;20490;-65
2022/01/07 04:22:47;;;;;;;4.03;1.58;;;;;;;11.10;45.44;101038.19;4956928;29;20028;-65
2022/01/07 04:25:17;;;;;;;5.40;1.10;;;;;;;11.07;45.67;101027.72;4956763;29;20472;-66
2022/01/07 04:28:15;;;;;;;3.90;1.27;;;;;;;11.03;45.46;101028.09;4939838;29;20027;-65
2022/01/07 04:30:43;;;;;;;7.15;1.40;;;;;;;10.97;46.28;101034.81;4924024;29;20062;-66
2022/01/07 04:33:12;;;;;;;3.53;1.50;;;;;;;10.94;45.95;101032.38;4956408;29;20391;-65
2022/01/07 04:35:38;;;;;;;4.40;1.38;;;;;;;10.92;45.63;101026.31;4956474;29;20035;-66
2022/01/07 04:38:05;;;;;;;4.72;1.48;;;;;;;10.90;45.68;101028.25;4956516;29;20559;-66
2022/01/07 04:40:32;;;;;;;2.40;1.27;;;;;;;10.90;46.50;101022.91;4923420;29;20484;-65
2022/01/07 04:42:59;;;;;;;1.40;1.00;;;;;;;10.85;46.39;101017.06;4939199;29;20031;-66
2022/01/07 04:45:24;;;;;;;2.22;1.30;;;;;;;10.83;47.07;101028.91;4939082;28;20102;-66
2022/01/07 04:47:50;;;;;;;4.32;1.40;;;;;;;10.80;46.21;101018.44;4956095;29;20059;-66
2022/01/07 04:50:17;;;;;;;4.30;1.23;;;;;;;10.79;46.58;101025.63;4955663;28;20034;-66
2022/01/07 04:52:44;;;;;;;2.22;1.20;;;;;;;10.80;46.23;101023.78;4956342;29;20102;-66
2022/01/07 04:55:17;;;;;;;3.72;1.33;;;;;;;10.79;46.52;101028.28;4956230;29;20435;-66
2022/01/07 04:57:43;;;;;;;;;;;;;;;10.81;46.52;101025.47;4956428;29;20110;-66
2022/01/07 05:00:09;;;;;;;5.95;1.40;;;;;;;10.78;46.67;101037.28;4939027;29;20005;-66
2022/01/07 05:02:34;;;;;;;3.55;0.98;;;;;;;10.71;46.43;101020.03;4938755;29;20053;-66
2022/01/07 05:05:00;;;;;;;2.55;0.82;;;;;;;10.74;45.94;101019.78;4955931;29;20437;-65
2022/01/07 05:07:25;;;;;;;2.08;1.25;;;;;;;10.74;47.04;101022.47;4923154;29;20063;-66
2022/01/07 05:09:51;;;;;;;4.32;1.30;;;;;;;10.73;46.65;101028.78;4955820;29;20039;-66
2022/01/07 05:12:16;;;;;;;7.50;1.50;;;;;;;10.68;46.59;101009.56;4938557;29;20057;-66
2022/01/07 05:14:41;;;;;;;1.33;0.75;;;;;;;10.69;46.87;101018.47;4938742;29;20061;-65
2022/01/07 05:17:07;;;;;;;3.17;1.20;;;;;;;10.70;46.86;101023.69;4955653;29;20027;-65
2022/01/07 05:19:32;;;;;;;5.15;1.50;;;;;;;10.70;46.80;101018.31;4955705;29;20026;-65
2022/01/07 05:21:57;;;;;;;7.63;0.93;;;;;;;10.71;47.47;101019.19;4955538;29;20106;-66
2022/01/07 05:24:23;;;;;;;3.72;1.27;;;;;;;10.70;46.88;100996.03;4938403;29;20034;-65
2022/01/07 05:26:48;;;;;;;3.08;1.30;;;;;;;10.70;47.40;101014.78;4955513;29;20035;-66
2022/01/07 05:29:13;;;;;;;1.42;1.10;;;;;;;10.71;46.92;101012.00;4955524;29;20066;-65
2022/01/07 05:31:39;;;;;;;1.77;1.20;;;;;;;10.71;47.00;101012.00;4938163;29;20050;-66
2022/01/07 05:34:04;;;;;;;1.90;0.90;;;;;;;10.73;46.92;101015.41;4955762;29;20114;-66
2022/01/07 05:36:29;;;;;;;1.88;1.00;;;;;;;10.75;47.52;101009.94;4955461;29;20031;-66
2022/01/07 05:38:55;;;;;;;4.30;1.02;;;;;;;10.78;47.71;101023.91;4955532;29;20027;-66
2022/01/07 05:41:21;;;;;;;5.53;1.08;;;;;;;10.79;47.60;101025.63;4955278;29;20102;-66
2022/01/07 05:43:46;;;;;;;3.95;1.15;;;;;;;10.81;47.58;101020.97;4938193;29;20034;-66
2022/01/07 05:46:14;;;;;;;3.88;0.90;;;;;;;10.83;47.20;101008.28;4955321;28;20424;-66
2022/01/07 05:48:41;;;;;;;4.70;1.10;;;;;;;10.85;46.58;101000.16;4952022;29;20133;-66
2022/01/07 05:51:07;;;;;;;7.55;1.85;;;;;;;10.86;47.24;101008.03;4955027;28;20074;-66
2022/01/07 05:53:33;;;;;;;4.55;1.20;;;;;;;10.87;47.59;100988.31;4955317;28;20408;-66
2022/01/07 05:55:58;;;;;;;2.28;1.13;;;;;;;10.85;47.28;100981.38;4955086;28;20033;-66
2022/01/07 05:58:23;;;;;;;3.05;1.40;;;;;;;10.85;47.55;100976.88;4953788;29;20118;-66
2022/01/07 06:00:49;;;;;;;1.67;1.50;;;;;;;10.83;47.64;100986.84;4954262;28;20130;-65
2022/01/07 06:03:14;;;;;;;3.33;1.55;;;;;;;10.87;47.30;100988.31;4955112;28;20031;-66
2022/01/07 06:05:40;;;;;;;3.20;1.08;;;;;;;10.90;47.52;100992.56;4954986;28;20098;-66
2022/01/07 06:08:05;;;;;;;3.25;1.52;;;;;;;10.91;47.11;100995.13;4953907;29;20106;-66
2022/01/07 06:10:31;;;;;;;1.33;1.00;;;;;;;10.92;47.22;100994.13;4953597;29;20038;-65
2022/01/07 06:12:56;;;;;;;4.25;1.38;;;;;;;10.92;47.14;100996.81;4954800;28;20038;-66
2022/01/07 06:15:21;;;;;;;2.45;1.40;;;;;;;10.97;47.64;100991.09;4954834;28;20062;-66
2022/01/07 06:17:47;;;;;;;3.88;1.33;;;;;;;11.00;47.33;100994.34;4954707;28;20054;-65
2022/01/07 06:20:13;;;;;;;6.20;0.93;;;;;;;11.02;47.46;100995.09;4953428;29;20023;-66
2022/01/07 06:22:38;;;;;;;4.28;2.17;;;;;;;11.05;48.01;101000.16;4953435;29;20522;-66
2022/01/07 06:25:04;;;;;;;3.13;1.30;;;;;;;11.06;47.26;100996.53;4954596;28;20035;-66
2022/01/07 06:27:30;;;;;;;3.92;1.80;;;;;;;11.08;47.67;100991.06;4954686;28;20095;-64
2022/01/07 06:29:57;;;;;;;2.50;1.15;;;;;;;11.07;47.61;100984.84;4954611;28;20070;-66
2022/01/07 06:32:23;;;;;;;1.48;1.15;;;;;;;11.08;47.31;100989.19;4953308;29;20033;-66
2022/01/07 06:34:49;;;;;;;5.30;1.33;;;;;;;11.10;47.81;101000.66;4954503;28;20030;-66
2022/01/07 06:37:15;;;;;;;3.97;1.48;;;;;;;11.13;47.95;100994.19;4953154;29;20042;-65
2022/01/07 06:39:40;;;;;;;4.63;1.02;;;;;;;11.15;47.17;100996.72;4953241;29;20027;-66
2022/01/07 06:42:06;;;;;;;1.50;1.35;;;;;;;11.17;47.57;100994.78;4954399;28;20027;-66
2022/01/07 06:44:31;;;;;;;4.90;1.13;;;;;;;11.22;47.49;100998.78;4954784;28;20027;-66
2022/01/07 06:46:56;;;;;;;3.40;1.45;;;;;;;11.26;48.08;100999.34;4954037;28;20043;-65
2022/01/07 06:49:22;;;;;;;2.45;1.42;;;;;;;11.29;47.74;100999.97;4954395;29;20027;-66
2022/01/07 06:51:47;;;;;;;3.25;1.33;;;;;;;11.30;48.06;100993.63;4954186;29;20388;-65
2022/01/07 06:54:13;;;;;;;2.92;1.52;;;;;;;11.28;47.25;101003.59;4954526;29;20023;-65
2022/01/07 06:56:40;;;;;;;1.40;1.30;;;;;;;11.31;48.07;100997.13;4937067;29;20038;-65
2022/01/07 06:59:06;;;;;;;2.72;1.80;;;;;;;11.34;48.25;100999.56;4954404;29;20055;-66
2022/01/07 07:01:31;;;;;;;1.23;1.02;;;;;;;11.36;47.86;100994.94;4954154;29;20055;-66
2022/01/07 07:03:56;;;;;;;2.78;1.63;;;;;;;11.37;47.63;100996.63;4954106;29;20039;-65
2022/01/07 07:06:22;;;;;;;2.03;1.30;;;;;;;11.39;47.76;100989.31;4954235;29;20059;-66
2022/01/07 07:08:47;;;;;;;1.80;1.10;;;;;;;11.38;47.58;100982.25;4954068;29;20544;-66
2022/01/07 07:11:12;;;;;;;2.70;1.42;;;;;;;11.44;47.64;100987.09;4954277;29;20110;-65
2022/01/07 07:13:38;;;;;;;1.52;1.30;;;;;;;11.44;47.65;101003.19;4957300;28;20531;-67
2022/01/07 07:16:03;;;;;;;3.85;1.70;;;;;;;11.42;47.89;100986.34;4957835;29;20150;-66
2022/01/07 07:18:29;;;;;;;4.00;1.27;;;;;;;11.43;47.42;100990.75;4957806;29;20110;-66
2022/01/07 07:20:54;;;;;;;2.58;1.30;;;;;;;11.43;48.04;100990.75;4957711;29;20596;-66
2022/01/07 07:23:20;;;;;;;5.72;1.98;;;;;;;11.42;47.38;100992.56;4957706;29;20046;-66
2022/01/07 07:25:45;;;;;;;1.23;0.93;;;;;;;11.43;47.86;100982.69;4957782;29;20120;-66
2022/01/07 07:28:10;;;;;;;1.52;1.42;;;;;;;11.39;47.66;100979.41;4957593;29;20035;-66
2022/01/07 07:30:39;;;;;;;3.83;1.25;;;;;;;11.41;47.86;100984.66;4957666;29;20514;-67
2022/01/07 07:33:56;;;;;;;7.72;1.38;;;;;;;11.42;47.90;100999.75;4941003;29;20035;-67
2022/01/07 07:38:40;;;;;;;0.88;0.60;;;;;;;11.43;47.86;100988.06;4957710;29;20118;-66
2022/01/07 07:41:06;;;;;;;3.78;1.30;;;;;;;11.42;48.25;100999.75;4957457;29;20035;-67
2022/01/07 07:43:32;;;;;;;1.38;1.27;;;;;;;11.43;47.58;100996.09;4957326;29;20400;-67
2022/01/07 07:45:58;;;;;;;4.35;1.40;;;;;;;11.42;48.17;100986.34;4940192;29;20039;-66
2022/01/07 07:48:23;;;;;;;3.20;1.00;;;;;;;11.46;48.17;101001.22;4957555;28;20051;-66
2022/01/07 07:50:48;;;;;;;4.25;1.55;;;;;;;11.50;48.13;101002.66;4957250;29;20031;-67
2022/01/07 07:53:14;;;;;;;1.65;1.13;;;;;;;11.52;48.05;101011.41;4957578;29;20046;-66
2022/01/07 07:55:39;;;;;;;1.88;1.10;;;;;;;11.52;48.84;101011.41;4957215;29;20110;-65
2022/01/07 07:58:05;;;;;;;1.67;1.35;;;;;;;11.50;47.75;101006.16;4940149;29;20035;-67
2022/01/07 08:00:31;;;;;;;4.07;0.80;;;;;;;11.50;48.15;101008.03;4957021;29;20059;-67
2022/01/07 08:02:57;;;;;;;1.73;1.20;;;;;;;11.54;47.88;101012.13;4940038;29;20110;-66
2022/01/07 08:05:23;;;;;;;1.55;1.17;;;;;;;11.57;48.20;101006.50;4939838;29;20035;-64
2022/01/07 08:07:48;;;;;;;3.28;1.30;;;;;;;11.56;47.71;101008.34;4957020;29;20043;-66
2022/01/07 08:10:20;;;;;;;2.13;0.95;;;;;;;11.61;48.18;100994.53;4956882;29;20038;-66
2022/01/07 08:18:01;;;;;;;0.98;0.90;;;;;;;11.62;48.64;100996.22;4956806;29;20042;-66
2022/01/07 08:20:26;;;;;;;2.30;1.17;;;;;;;11.63;48.41;100989.88;4939745;29;20472;-67
2022/01/07 08:22:52;;;;;;;1.17;0.88;;;;;;;11.63;47.77;100981.84;4939599;29;20030;-66
2022/01/07 08:25:17;;;;;;;1.17;1.08;;;;;;;11.63;48.08;100973.78;4955661;29;20543;-66
2022/01/07 08:27:43;;;;;;;1.27;1.17;;;;;;;11.67;47.95;100972.53;4956575;29;20032;-66
2022/01/07 08:30:15;;;;;;;2.53;1.00;;;;;;;11.71;47.74;100970.47;4939548;29;20381;-65
2022/01/07 08:35:27;;;;;;;0.70;0.70;;;;;;;11.73;48.22;100953.25;4956563;29;20408;-65
2022/01/07 08:37:53;;;;;;;1.58;0.80;;;;;;;11.72;47.36;100973.03;4956409;29;20110;-67
2022/01/07 08:40:18;;;;;;;1.20;1.10;;;;;;;11.74;47.64;100979.09;4956453;29;20063;-66
2022/01/07 08:42:45;;;;;;;1.08;0.88;;;;;;;11.78;47.61;100985.06;4939587;29;20102;-66
2022/01/07 08:45:10;;;;;;;2.85;1.20;;;;;;;11.79;47.28;100990.28;4956129;28;20046;-67
2022/01/07 08:47:36;;;;;;;1.23;1.08;;;;;;;11.81;48.27;100992.84;4955985;29;20059;-66
2022/01/07 08:50:02;;;;;;;1.27;0.93;;;;;;;11.84;48.22;100995.25;4956209;29;20070;-67
2022/01/07 08:52:28;;;;;;;1.55;0.85;;;;;;;11.84;47.67;100996.09;4938958;29;20032;-67
2022/01/07 08:54:53;;;;;;;3.85;0.93;;;;;;;11.87;47.28;100990.47;4956022;29;20078;-67
2022/01/07 08:57:20;;;;;;;1.38;0.93;;;;;;;11.91;47.80;100989.22;4956438;29;20132;-67
2022/01/07 08:59:46;;;;;;;1.33;0.90;;;;;;;11.98;47.47;100984.16;4956240;29;20027;-66
2022/01/07 09:02:11;;;;;;;3.47;1.33;;;;;;;12.01;48.41;100987.44;4956216;29;20054;-66
2022/01/07 09:04:36;;;;;;;1.25;1.15;;;;;;;12.08;48.22;100977.88;4955886;29;20031;-66
2022/01/07 09:07:02;;;;;;;3.13;1.30;;;;;;;12.12;48.08;100968.53;4955849;29;20395;-66
2022/01/07 09:09:27;;;;;;;1.88;1.15;;;;;;;12.14;47.80;100955.81;4955882;29;20035;-66
2022/01/07 09:11:53;;;;;;;1.42;1.20;;;;;;;12.14;47.15;100958.50;4955685;29;20046;-65
2022/01/07 09:14:18;;;;;;;1.95;1.10;;;;;;;12.16;47.62;100964.63;4955735;29;20050;-65
2022/01/07 09:16:44;;;;;;;3.97;1.17;;;;;;;12.19;48.38;100979.59;4955604;29;20403;-67
2022/01/07 09:19:09;;;;;;;1.48;0.80;;;;;;;12.18;47.22;100988.63;4955498;29;20551;-66
2022/01/07 09:21:34;;;;;;;1.17;0.95;;;;;;;12.17;48.10;100987.78;4955460;29;20435;-67
2022/01/07 09:24:00;;;;;;;1.90;1.05;;;;;;;12.14;48.19;100990.72;4955650;29;20037;-67
2022/01/07 09:26:25;;;;;;;1.05;0.95;;;;;;;12.13;48.37;100991.75;4955424;29;20059;-66
2022/01/07 09:28:51;;;;;;;1.42;1.17;;;;;;;12.15;47.53;101005.88;4955472;29;20035;-66
2022/01/07 09:31:17;;;;;;;1.48;0.80;;;;;;;12.16;47.44;100999.53;4955266;29;20035;-66
2022/01/07 09:33:43;;;;;;;0.85;0.85;;;;;;;12.18;47.83;101002.06;4955615;29;20039;-67
2022/01/07 09:36:08;;;;;;;3.25;0.65;;;;;;;12.18;47.83;101013.66;4955106;28;20038;-66
2022/01/07 09:38:33;;;;;;;1.70;0.93;;;;;;;12.18;47.35;101005.59;4955220;29;20098;-66
2022/01/07 09:40:59;;;;;;;2.10;1.25;;;;;;;12.16;48.16;101004.91;4938101;29;20080;-66
2022/01/07 09:43:25;;;;;;;1.45;1.30;;;;;;;12.16;47.94;100995.97;4938091;29;20035;-66
2022/01/07 09:45:51;;;;;;;1.17;1.05;;;;;;;12.16;48.19;101004.91;4937907;29;20035;-66
2022/01/07 09:48:17;;;;;;;0.98;0.93;;;;;;;12.17;47.93;100990.47;4954616;29;20061;-66
2022/01/07 09:50:42;;;;;;;1.75;1.30;;;;;;;12.17;47.45;100982.41;4937942;29;20035;-66
2022/01/07 09:53:12;;;;;;;0.88;0.85;;;;;;;12.21;47.70;100983.84;4955009;29;20133;-66
2022/01/07 09:55:38;;;;;;;5.10;1.20;;;;;;;12.28;47.60;100978.78;4954862;29;20059;-66
2022/01/07 09:58:04;;;;;;;3.03;0.93;;;;;;;12.34;47.21;100978.22;4937757;29;20019;-66
2022/01/07 10:00:41;;;;;;;1.35;1.00;;;;;;;12.39;47.72;100976.00;4954803;29;20078;-67
2022/01/07 10:03:12;;;;;;;1.33;1.17;;;;;;;12.42;47.85;100977.56;4954726;29;20517;-66
2022/01/07 10:05:51;;;;;;;2.20;1.48;;;;;;;12.46;47.24;100970.91;4954780;29;20042;-67
2022/01/07 10:08:22;;;;;;;1.13;1.05;;;;;;;12.50;47.46;100966.97;4954764;29;20494;-66
2022/01/07 10:10:53;;;;;;;1.80;1.45;;;;;;;12.54;47.38;100963.00;4937345;29;20356;-67
2022/01/07 10:13:19;;;;;;;1.92;1.35;;;;;;;12.59;47.21;100966.97;4937439;29;20070;-67
2022/01/07 10:15:45;;;;;;;1.88;1.60;;;;;;;12.56;48.06;100967.25;4921604;29;20027;-67
2022/01/07 10:18:13;;;;;;;1.98;1.35;;;;;;;12.55;48.13;100968.25;4954460;29;20034;-67
2022/01/07 10:20:41;;;;;;;1.73;0.98;;;;;;;12.55;47.22;100953.97;4954536;29;20433;-66
2022/01/07 10:23:09;;;;;;;1.20;1.08;;;;;;;12.54;47.17;100957.63;4937356;29;20480;-66
2022/01/07 10:25:38;;;;;;;2.42;1.02;;;;;;;12.59;47.84;100958.09;4937258;29;20085;-66
2022/01/07 10:28:15;;;;;;;1.17;1.05;;;;;;;12.67;47.28;100955.56;4954355;29;20395;-67
2022/01/07 10:30:44;;;;;;;1.23;1.13;;;;;;;12.73;47.97;100952.31;4954611;29;20082;-66
2022/01/07 10:33:21;;;;;;;2.28;1.20;;;;;;;12.76;47.98;100941.25;4954491;29;20403;-66
2022/01/07 10:35:58;;;;;;;1.08;0.98;;;;;;;12.76;47.20;100944.78;4954682;29;20109;-66
2022/01/07 10:38:23;;;;;;;3.85;1.70;;;;;;;12.78;47.72;100950.03;4937330;29;20031;-66
2022/01/07 10:40:51;;;;;;;2.47;1.65;;;;;;;12.77;47.57;100937.59;4954365;29;20148;-65
2022/01/07 10:43:19;;;;;;;1.42;1.15;;;;;;;12.76;47.18;100931.34;4954240;29;20050;-66
2022/01/07 10:45:48;;;;;;;1.70;0.90;;;;;;;12.75;47.48;100939.56;4954492;28;20067;-66
2022/01/07 10:48:14;;;;;;;2.58;1.58;;;;;;;12.73;47.32;100930.81;4953260;29;20047;-66
2022/01/07 10:50:46;;;;;;;2.35;1.65;;;;;;;12.70;47.19;100931.09;4953223;29;20058;-66
2022/01/07 10:53:19;;;;;;;3.25;1.83;;;;;;;12.69;48.38;100929.38;4932705;29;20046;-66
2022/01/07 10:56:01;;;;;;;2.97;1.15;;;;;;;12.72;47.59;100919.19;4954134;29;20035;-66
2022/01/07 10:58:27;;;;;;;2.45;1.40;;;;;;;12.77;48.09;100919.63;4954263;29;20035;-66
2022/01/07 11:00:52;;;;;;;3.85;1.38;;;;;;;12.79;48.08;100914.94;4936966;29;20035;-66
2022/01/07 11:03:18;;;;;;;4.22;1.48;;;;;;;12.84;47.51;100925.28;4953947;29;20034;-66
2022/01/07 11:05:43;;;;;;;2.33;1.50;;;;;;;13.02;47.89;100914.66;4937051;29;20042;-66
2022/01/07 11:08:08;;;;;;;3.42;1.48;;;;;;;13.21;47.60;100910.13;4954104;29;20028;-66
2022/01/07 11:10:36;;;;;;;5.97;1.80;;;;;;;13.43;47.61;100909.81;4954059;29;20093;-66
2022/01/07 11:13:01;;;;;;;5.13;1.42;;;;;;;13.80;46.41;100908.97;4937179;29;20023;-67
2022/01/07 11:15:27;;;;;;;1.95;1.70;;;;;;;13.90;47.25;100899.84;4936964;29;20042;-66
2022/01/07 11:17:52;;;;;;;4.32;2.10;;;;;;;14.04;46.71;100895.84;4954449;29;20122;-66
2022/01/07 11:20:24;;;;;;;4.45;1.98;;;;;;;14.30;45.80;100901.34;4936969;29;20039;-66
2022/01/07 11:22:49;;;;;;;4.68;2.10;;;;;;;14.60;45.51;100894.81;4937653;29;20149;-66
2022/01/07 11:25:15;;;;;;;6.47;1.77;;;;;;;14.52;45.92;100895.56;4936836;29;20059;-67
2022/01/07 11:27:48;;;;;;;2.80;1.70;;;;;;;14.61;47.11;100886.56;4954432;29;20495;-66
2022/01/07 11:30:15;;;;;;;;;;;;;;;15.03;45.33;100884.06;4937144;29;20058;-66
2022/01/07 11:32:48;;;;;;;1.70;1.60;;;;;;;15.33;46.29;100882.75;4953902;29;19957;-65